sensor_id;sensor_type;location;lat;lon;timestamp;temperature;humidity
80153;DHT22;69475;51.196;4.542;2023-04-24T00:00:16;18.50;53.10
80153;DHT22;69475;51.196;4.542;2023-04-24T00:02:43;18.50;53.10
80153;DHT22;69475;51.196;4.542;2023-04-24T00:05:14;18.50;53.10
80153;DHT22;69475;51.196;4.542;2023-04-24T00:07:44;18.50;53.10
80153;DHT22;69475;51.196;4.542;2023-04-24T00:10:11;18.50;53.10
80153;DHT22;69475;51.196;4.542;2023-04-24T00:12:37;18.50;52.90
80153;DHT22;69475;51.196;4.542;2023-04-24T00:15:04;18.50;52.90
80153;DHT22;69475;51.196;4.542;2023-04-24T00:17:30;18.50;53.90
80153;DHT22;69475;51.196;4.542;2023-04-24T00:19:56;18.50;52.80
80153;DHT22;69475;51.196;4.542;2023-04-24T00:22:27;18.50;52.80
80153;DHT22;69475;51.196;4.542;2023-04-24T00:24:54;18.50;52.80
80153;DHT22;69475;51.196;4.542;2023-04-24T00:27:20;18.50;52.80
80153;DHT22;69475;51.196;4.542;2023-04-24T00:29:45;18.50;52.90
80153;DHT22;69475;51.196;4.542;2023-04-24T00:32:11;18.40;52.90
80153;DHT22;69475;51.196;4.542;2023-04-24T00:34:37;18.40;52.80
80153;DHT22;69475;51.196;4.542;2023-04-24T00:37:02;18.40;52.80
80153;DHT22;69475;51.196;4.542;2023-04-24T00:39:28;18.40;52.90
80153;DHT22;69475;51.196;4.542;2023-04-24T00:41:54;18.40;52.90
80153;DHT22;69475;51.196;4.542;2023-04-24T00:44:20;18.40;53.00
80153;DHT22;69475;51.196;4.542;2023-04-24T00:46:46;18.40;53.00
80153;DHT22;69475;51.196;4.542;2023-04-24T00:49:13;18.30;52.90
80153;DHT22;69475;51.196;4.542;2023-04-24T00:51:40;18.30;52.90
80153;DHT22;69475;51.196;4.542;2023-04-24T00:54:06;18.40;52.90
80153;DHT22;69475;51.196;4.542;2023-04-24T00:56:31;18.30;52.80
80153;DHT22;69475;51.196;4.542;2023-04-24T00:58:57;18.30;52.80
80153;DHT22;69475;51.196;4.542;2023-04-24T01:01:24;18.30;52.90
80153;DHT22;69475;51.196;4.542;2023-04-24T01:03:51;18.30;52.90
80153;DHT22;69475;51.196;4.542;2023-04-24T01:06:16;18.30;53.00
80153;DHT22;69475;51.196;4.542;2023-04-24T01:08:45;18.30;52.90
80153;DHT22;69475;51.196;4.542;2023-04-24T01:11:11;18.30;53.00
80153;DHT22;69475;51.196;4.542;2023-04-24T01:13:37;18.20;52.90
80153;DHT22;69475;51.196;4.542;2023-04-24T01:16:03;18.20;52.90
80153;DHT22;69475;51.196;4.542;2023-04-24T01:18:29;18.20;52.90
80153;DHT22;69475;51.196;4.542;2023-04-24T01:20:58;18.20;53.20
80153;DHT22;69475;51.196;4.542;2023-04-24T01:23:24;18.20;52.90
80153;DHT22;69475;51.196;4.542;2023-04-24T01:25:50;18.20;52.90
80153;DHT22;69475;51.196;4.542;2023-04-24T01:28:16;18.20;52.90
80153;DHT22;69475;51.196;4.542;2023-04-24T01:30:43;18.20;53.00
80153;DHT22;69475;51.196;4.542;2023-04-24T01:33:09;18.20;53.00
80153;DHT22;69475;51.196;4.542;2023-04-24T01:35:36;18.20;52.90
80153;DHT22;69475;51.196;4.542;2023-04-24T01:38:03;18.20;52.90
80153;DHT22;69475;51.196;4.542;2023-04-24T01:40:28;18.20;53.00
80153;DHT22;69475;51.196;4.542;2023-04-24T01:42:54;18.20;52.90
80153;DHT22;69475;51.196;4.542;2023-04-24T01:45:20;18.10;52.90
80153;DHT22;69475;51.196;4.542;2023-04-24T01:47:46;18.10;52.90
80153;DHT22;69475;51.196;4.542;2023-04-24T01:50:13;18.10;52.90
80153;DHT22;69475;51.196;4.542;2023-04-24T01:52:39;18.10;52.90
80153;DHT22;69475;51.196;4.542;2023-04-24T01:55:05;18.10;52.90
80153;DHT22;69475;51.196;4.542;2023-04-24T01:57:33;18.10;52.90
80153;DHT22;69475;51.196;4.542;2023-04-24T01:59:59;18.10;52.90
80153;DHT22;69475;51.196;4.542;2023-04-24T02:02:24;18.10;53.00
80153;DHT22;69475;51.196;4.542;2023-04-24T02:04:53;18.10;52.90
80153;DHT22;69475;51.196;4.542;2023-04-24T02:07:19;18.10;52.90
80153;DHT22;69475;51.196;4.542;2023-04-24T02:09:45;18.10;52.90
80153;DHT22;69475;51.196;4.542;2023-04-24T02:12:11;18.10;52.90
80153;DHT22;69475;51.196;4.542;2023-04-24T02:14:37;18.10;52.90
80153;DHT22;69475;51.196;4.542;2023-04-24T02:17:02;18.10;52.90
80153;DHT22;69475;51.196;4.542;2023-04-24T02:19:29;18.10;52.90
80153;DHT22;69475;51.196;4.542;2023-04-24T02:21:54;18.00;52.90
80153;DHT22;69475;51.196;4.542;2023-04-24T02:24:20;18.00;52.90
80153;DHT22;69475;51.196;4.542;2023-04-24T02:26:46;18.00;52.90
80153;DHT22;69475;51.196;4.542;2023-04-24T02:29:11;18.00;52.90
80153;DHT22;69475;51.196;4.542;2023-04-24T02:31:37;18.10;52.90
80153;DHT22;69475;51.196;4.542;2023-04-24T02:34:03;18.00;52.90
80153;DHT22;69475;51.196;4.542;2023-04-24T02:36:28;18.00;52.90
80153;DHT22;69475;51.196;4.542;2023-04-24T02:38:54;18.00;52.90
80153;DHT22;69475;51.196;4.542;2023-04-24T02:41:19;18.00;52.90
80153;DHT22;69475;51.196;4.542;2023-04-24T02:43:45;18.00;52.90
80153;DHT22;69475;51.196;4.542;2023-04-24T02:46:11;18.00;52.80
80153;DHT22;69475;51.196;4.542;2023-04-24T02:48:37;18.00;52.80
80153;DHT22;69475;51.196;4.542;2023-04-24T02:51:03;18.00;52.80
80153;DHT22;69475;51.196;4.542;2023-04-24T02:53:28;17.90;52.80
80153;DHT22;69475;51.196;4.542;2023-04-24T02:55:56;17.90;52.90
80153;DHT22;69475;51.196;4.542;2023-04-24T02:58:22;17.90;52.90
80153;DHT22;69475;51.196;4.542;2023-04-24T03:00:47;17.90;52.90
80153;DHT22;69475;51.196;4.542;2023-04-24T03:03:14;17.90;52.80
80153;DHT22;69475;51.196;4.542;2023-04-24T03:05:40;17.90;52.90
80153;DHT22;69475;51.196;4.542;2023-04-24T03:08:06;17.90;52.90
80153;DHT22;69475;51.196;4.542;2023-04-24T03:10:32;17.90;52.90
80153;DHT22;69475;51.196;4.542;2023-04-24T03:12:58;17.90;52.90
80153;DHT22;69475;51.196;4.542;2023-04-24T03:15:23;17.80;52.80
80153;DHT22;69475;51.196;4.542;2023-04-24T03:17:49;17.80;52.90
80153;DHT22;69475;51.196;4.542;2023-04-24T03:20:15;17.80;53.00
80153;DHT22;69475;51.196;4.542;2023-04-24T03:22:41;17.80;52.90
80153;DHT22;69475;51.196;4.542;2023-04-24T03:25:07;17.80;53.00
80153;DHT22;69475;51.196;4.542;2023-04-24T03:27:34;17.80;53.00
80153;DHT22;69475;51.196;4.542;2023-04-24T03:30:00;17.80;53.00
80153;DHT22;69475;51.196;4.542;2023-04-24T03:32:26;17.80;53.00
80153;DHT22;69475;51.196;4.542;2023-04-24T03:34:52;17.80;53.00
80153;DHT22;69475;51.196;4.542;2023-04-24T03:37:17;17.80;53.00
80153;DHT22;69475;51.196;4.542;2023-04-24T03:39:43;17.80;53.00
80153;DHT22;69475;51.196;4.542;2023-04-24T03:42:09;17.70;52.90
80153;DHT22;69475;51.196;4.542;2023-04-24T03:44:35;17.70;53.00
80153;DHT22;69475;51.196;4.542;2023-04-24T03:47:01;17.70;53.10
80153;DHT22;69475;51.196;4.542;2023-04-24T03:49:27;17.70;53.10
80153;DHT22;69475;51.196;4.542;2023-04-24T03:51:53;17.70;53.20
80153;DHT22;69475;51.196;4.542;2023-04-24T03:54:19;17.60;53.20
80153;DHT22;69475;51.196;4.542;2023-04-24T03:56:45;17.60;53.10
80153;DHT22;69475;51.196;4.542;2023-04-24T03:59:10;17.60;53.10
80153;DHT22;69475;51.196;4.542;2023-04-24T04:01:37;17.60;53.10
80153;DHT22;69475;51.196;4.542;2023-04-24T04:04:06;17.60;53.10
80153;DHT22;69475;51.196;4.542;2023-04-24T04:06:32;17.60;53.00
80153;DHT22;69475;51.196;4.542;2023-04-24T04:08:58;17.60;53.10
80153;DHT22;69475;51.196;4.542;2023-04-24T04:11:24;17.60;53.10
80153;DHT22;69475;51.196;4.542;2023-04-24T04:13:50;17.50;53.20
80153;DHT22;69475;51.196;4.542;2023-04-24T04:16:16;17.60;53.20
80153;DHT22;69475;51.196;4.542;2023-04-24T04:18:45;17.50;53.10
80153;DHT22;69475;51.196;4.542;2023-04-24T04:21:11;17.50;53.10
80153;DHT22;69475;51.196;4.542;2023-04-24T04:23:36;17.50;53.30
80153;DHT22;69475;51.196;4.542;2023-04-24T04:26:05;17.60;53.30
80153;DHT22;69475;51.196;4.542;2023-04-24T04:28:31;17.70;53.10
80153;DHT22;69475;51.196;4.542;2023-04-24T04:30:58;17.60;53.20
80153;DHT22;69475;51.196;4.542;2023-04-24T04:33:24;17.60;53.30
80153;DHT22;69475;51.196;4.542;2023-04-24T04:35:51;17.70;53.20
80153;DHT22;69475;51.196;4.542;2023-04-24T04:38:22;17.80;53.10
80153;DHT22;69475;51.196;4.542;2023-04-24T04:40:48;17.90;52.90
80153;DHT22;69475;51.196;4.542;2023-04-24T04:43:14;17.90;52.70
80153;DHT22;69475;51.196;4.542;2023-04-24T04:45:40;18.10;52.40
80153;DHT22;69475;51.196;4.542;2023-04-24T04:48:07;18.30;52.00
80153;DHT22;69475;51.196;4.542;2023-04-24T04:50:37;18.50;51.60
80153;DHT22;69475;51.196;4.542;2023-04-24T04:53:03;18.80;51.10
80153;DHT22;69475;51.196;4.542;2023-04-24T04:55:29;19.00;50.60
80153;DHT22;69475;51.196;4.542;2023-04-24T04:57:54;19.20;50.20
80153;DHT22;69475;51.196;4.542;2023-04-24T05:00:21;19.40;49.90
80153;DHT22;69475;51.196;4.542;2023-04-24T05:02:47;19.50;49.60
80153;DHT22;69475;51.196;4.542;2023-04-24T05:05:12;19.60;49.50
80153;DHT22;69475;51.196;4.542;2023-04-24T05:07:38;19.70;49.30
80153;DHT22;69475;51.196;4.542;2023-04-24T05:10:04;19.80;49.40
80153;DHT22;69475;51.196;4.542;2023-04-24T05:12:30;19.80;49.30
80153;DHT22;69475;51.196;4.542;2023-04-24T05:14:56;19.90;49.40
80153;DHT22;69475;51.196;4.542;2023-04-24T05:17:21;19.90;49.30
80153;DHT22;69475;51.196;4.542;2023-04-24T05:19:47;19.90;49.40
80153;DHT22;69475;51.196;4.542;2023-04-24T05:22:13;19.90;49.40
80153;DHT22;69475;51.196;4.542;2023-04-24T05:24:39;19.90;49.40
80153;DHT22;69475;51.196;4.542;2023-04-24T05:27:05;19.90;49.40
80153;DHT22;69475;51.196;4.542;2023-04-24T05:29:31;19.90;49.40
80153;DHT22;69475;51.196;4.542;2023-04-24T05:31:58;19.90;49.40
80153;DHT22;69475;51.196;4.542;2023-04-24T05:34:25;19.90;49.40
80153;DHT22;69475;51.196;4.542;2023-04-24T05:36:50;19.90;49.50
80153;DHT22;69475;51.196;4.542;2023-04-24T05:39:16;19.90;49.50
80153;DHT22;69475;51.196;4.542;2023-04-24T05:41:42;19.90;49.40
80153;DHT22;69475;51.196;4.542;2023-04-24T05:44:08;19.90;49.40
80153;DHT22;69475;51.196;4.542;2023-04-24T05:46:34;19.90;49.40
80153;DHT22;69475;51.196;4.542;2023-04-24T05:49:00;20.00;49.40
80153;DHT22;69475;51.196;4.542;2023-04-24T05:51:26;20.00;49.40
80153;DHT22;69475;51.196;4.542;2023-04-24T05:53:52;20.00;49.40
80153;DHT22;69475;51.196;4.542;2023-04-24T05:56:18;20.00;49.40
80153;DHT22;69475;51.196;4.542;2023-04-24T05:58:45;19.90;49.40
80153;DHT22;69475;51.196;4.542;2023-04-24T06:01:11;20.00;49.40
80153;DHT22;69475;51.196;4.542;2023-04-24T06:03:38;20.00;49.40
80153;DHT22;69475;51.196;4.542;2023-04-24T06:06:04;20.00;49.40
80153;DHT22;69475;51.196;4.542;2023-04-24T06:08:29;20.00;49.40
80153;DHT22;69475;51.196;4.542;2023-04-24T06:10:55;19.90;49.50
80153;DHT22;69475;51.196;4.542;2023-04-24T06:13:21;19.90;49.60
80153;DHT22;69475;51.196;4.542;2023-04-24T06:15:46;19.90;49.70
80153;DHT22;69475;51.196;4.542;2023-04-24T06:18:12;19.90;51.00
80153;DHT22;69475;51.196;4.542;2023-04-24T06:20:38;20.00;50.00
80153;DHT22;69475;51.196;4.542;2023-04-24T06:23:04;19.90;50.30
80153;DHT22;69475;51.196;4.542;2023-04-24T06:25:29;19.80;50.50
80153;DHT22;69475;51.196;4.542;2023-04-24T06:27:56;19.70;50.60
80153;DHT22;69475;51.196;4.542;2023-04-24T06:30:22;19.70;50.70
80153;DHT22;69475;51.196;4.542;2023-04-24T06:32:48;19.70;50.40
80153;DHT22;69475;51.196;4.542;2023-04-24T06:35:14;19.70;51.40
80153;DHT22;69475;51.196;4.542;2023-04-24T06:37:41;19.70;50.30
80153;DHT22;69475;51.196;4.542;2023-04-24T06:40:07;19.70;50.20
80153;DHT22;69475;51.196;4.542;2023-04-24T06:42:33;19.80;50.50
80153;DHT22;69475;51.196;4.542;2023-04-24T06:45:00;19.90;50.00
80153;DHT22;69475;51.196;4.542;2023-04-24T06:47:26;19.90;49.90
80153;DHT22;69475;51.196;4.542;2023-04-24T06:49:52;20.00;49.90
80153;DHT22;69475;51.196;4.542;2023-04-24T06:52:18;20.00;49.80
80153;DHT22;69475;51.196;4.542;2023-04-24T06:54:44;20.10;50.80
80153;DHT22;69475;51.196;4.542;2023-04-24T06:57:10;20.00;50.60
80153;DHT22;69475;51.196;4.542;2023-04-24T06:59:36;20.00;52.00
80153;DHT22;69475;51.196;4.542;2023-04-24T07:02:02;20.00;50.70
80153;DHT22;69475;51.196;4.542;2023-04-24T07:04:28;20.00;51.10
80153;DHT22;69475;51.196;4.542;2023-04-24T07:06:54;20.00;51.50
80153;DHT22;69475;51.196;4.542;2023-04-24T07:09:22;20.10;51.50
80153;DHT22;69475;51.196;4.542;2023-04-24T07:11:49;20.10;51.70
80153;DHT22;69475;51.196;4.542;2023-04-24T07:14:15;20.10;51.70
80153;DHT22;69475;51.196;4.542;2023-04-24T07:16:42;20.20;52.00
80153;DHT22;69475;51.196;4.542;2023-04-24T07:19:07;20.20;51.90
80153;DHT22;69475;51.196;4.542;2023-04-24T07:21:33;20.10;52.00
80153;DHT22;69475;51.196;4.542;2023-04-24T07:23:59;20.20;52.30
80153;DHT22;69475;51.196;4.542;2023-04-24T07:26:26;20.30;52.00
80153;DHT22;69475;51.196;4.542;2023-04-24T07:28:52;20.40;52.20
80153;DHT22;69475;51.196;4.542;2023-04-24T07:31:18;20.40;52.00
80153;DHT22;69475;51.196;4.542;2023-04-24T07:33:43;20.40;52.30
80153;DHT22;69475;51.196;4.542;2023-04-24T07:36:09;20.40;52.20
80153;DHT22;69475;51.196;4.542;2023-04-24T07:38:47;20.40;52.40
80153;DHT22;69475;51.196;4.542;2023-04-24T07:41:13;20.60;52.20
80153;DHT22;69475;51.196;4.542;2023-04-24T07:43:38;20.60;52.20
80153;DHT22;69475;51.196;4.542;2023-04-24T07:46:04;20.60;52.20
80153;DHT22;69475;51.196;4.542;2023-04-24T07:48:30;20.60;52.30
80153;DHT22;69475;51.196;4.542;2023-04-24T07:50:56;20.60;54.20
80153;DHT22;69475;51.196;4.542;2023-04-24T07:53:21;20.70;52.20
80153;DHT22;69475;51.196;4.542;2023-04-24T07:55:47;20.70;52.00
80153;DHT22;69475;51.196;4.542;2023-04-24T07:58:13;20.80;52.00
80153;DHT22;69475;51.196;4.542;2023-04-24T08:00:38;20.80;52.00
80153;DHT22;69475;51.196;4.542;2023-04-24T08:03:04;20.80;52.00
80153;DHT22;69475;51.196;4.542;2023-04-24T08:05:30;20.70;52.10
80153;DHT22;69475;51.196;4.542;2023-04-24T08:07:56;20.70;52.30
80153;DHT22;69475;51.196;4.542;2023-04-24T08:10:22;20.80;52.20
80153;DHT22;69475;51.196;4.542;2023-04-24T08:12:48;20.80;52.30
80153;DHT22;69475;51.196;4.542;2023-04-24T08:15:14;20.90;52.40
80153;DHT22;69475;51.196;4.542;2023-04-24T08:17:40;21.00;52.10
80153;DHT22;69475;51.196;4.542;2023-04-24T08:20:07;20.90;53.30
80153;DHT22;69475;51.196;4.542;2023-04-24T08:22:42;20.80;52.30
80153;DHT22;69475;51.196;4.542;2023-04-24T08:25:09;20.80;52.40
80153;DHT22;69475;51.196;4.542;2023-04-24T08:27:36;20.80;52.70
80153;DHT22;69475;51.196;4.542;2023-04-24T08:30:05;20.70;52.70
80153;DHT22;69475;51.196;4.542;2023-04-24T08:32:31;20.80;52.40
80153;DHT22;69475;51.196;4.542;2023-04-24T08:34:57;20.70;52.40
80153;DHT22;69475;51.196;4.542;2023-04-24T08:37:23;20.60;52.50
80153;DHT22;69475;51.196;4.542;2023-04-24T08:39:50;20.50;52.80
80153;DHT22;69475;51.196;4.542;2023-04-24T08:42:17;20.50;53.10
80153;DHT22;69475;51.196;4.542;2023-04-24T08:44:43;20.50;53.30
80153;DHT22;69475;51.196;4.542;2023-04-24T08:47:10;20.50;53.70
80153;DHT22;69475;51.196;4.542;2023-04-24T08:49:36;20.40;53.50
80153;DHT22;69475;51.196;4.542;2023-04-24T08:52:03;20.40;53.50
80153;DHT22;69475;51.196;4.542;2023-04-24T08:54:31;20.50;53.70
80153;DHT22;69475;51.196;4.542;2023-04-24T08:57:01;20.40;53.70
80153;DHT22;69475;51.196;4.542;2023-04-24T08:59:28;20.60;53.40
80153;DHT22;69475;51.196;4.542;2023-04-24T09:01:55;20.80;53.20
80153;DHT22;69475;51.196;4.542;2023-04-24T09:04:22;20.80;53.00
80153;DHT22;69475;51.196;4.542;2023-04-24T09:06:57;20.80;52.90
80153;DHT22;69475;51.196;4.542;2023-04-24T09:09:24;20.90;52.80
80153;DHT22;69475;51.196;4.542;2023-04-24T09:11:52;20.90;52.80
80153;DHT22;69475;51.196;4.542;2023-04-24T09:14:20;20.90;52.80
80153;DHT22;69475;51.196;4.542;2023-04-24T09:16:46;20.90;52.70
80153;DHT22;69475;51.196;4.542;2023-04-24T09:19:12;21.00;52.60
80153;DHT22;69475;51.196;4.542;2023-04-24T09:21:38;21.00;52.50
80153;DHT22;69475;51.196;4.542;2023-04-24T09:24:06;21.00;52.50
80153;DHT22;69475;51.196;4.542;2023-04-24T09:26:35;20.90;52.70
80153;DHT22;69475;51.196;4.542;2023-04-24T09:29:01;20.90;52.60
80153;DHT22;69475;51.196;4.542;2023-04-24T09:31:28;21.00;52.50
80153;DHT22;69475;51.196;4.542;2023-04-24T09:34:03;21.00;52.10
80153;DHT22;69475;51.196;4.542;2023-04-24T09:36:41;20.90;52.50
80153;DHT22;69475;51.196;4.542;2023-04-24T09:39:14;20.80;53.00
80153;DHT22;69475;51.196;4.542;2023-04-24T09:41:52;20.70;53.10
80153;DHT22;69475;51.196;4.542;2023-04-24T09:44:22;20.60;53.20
80153;DHT22;69475;51.196;4.542;2023-04-24T09:46:53;20.60;53.40
80153;DHT22;69475;51.196;4.542;2023-04-24T09:49:38;20.50;53.40
80153;DHT22;69475;51.196;4.542;2023-04-24T09:52:05;20.60;54.40
80153;DHT22;69475;51.196;4.542;2023-04-24T09:54:32;20.60;53.40
80153;DHT22;69475;51.196;4.542;2023-04-24T09:56:58;20.70;53.10
80153;DHT22;69475;51.196;4.542;2023-04-24T09:59:26;20.80;52.80
80153;DHT22;69475;51.196;4.542;2023-04-24T10:01:51;20.90;52.50
80153;DHT22;69475;51.196;4.542;2023-04-24T10:04:24;20.90;52.70
80153;DHT22;69475;51.196;4.542;2023-04-24T10:06:51;20.90;53.50
80153;DHT22;69475;51.196;4.542;2023-04-24T10:09:19;21.00;52.50
80153;DHT22;69475;51.196;4.542;2023-04-24T10:11:47;21.00;52.40
80153;DHT22;69475;51.196;4.542;2023-04-24T10:14:18;21.00;52.20
80153;DHT22;69475;51.196;4.542;2023-04-24T10:16:44;21.00;52.20
80153;DHT22;69475;51.196;4.542;2023-04-24T10:19:13;21.00;52.30
80153;DHT22;69475;51.196;4.542;2023-04-24T10:21:43;21.00;52.30
80153;DHT22;69475;51.196;4.542;2023-04-24T10:24:16;20.90;52.30
80153;DHT22;69475;51.196;4.542;2023-04-24T10:26:43;21.00;52.30
80153;DHT22;69475;51.196;4.542;2023-04-24T10:29:14;21.00;52.10
80153;DHT22;69475;51.196;4.542;2023-04-24T10:31:41;21.00;52.30
80153;DHT22;69475;51.196;4.542;2023-04-24T10:34:09;21.00;52.10
80153;DHT22;69475;51.196;4.542;2023-04-24T10:36:38;21.10;52.10
80153;DHT22;69475;51.196;4.542;2023-04-24T10:39:08;21.00;52.00
80153;DHT22;69475;51.196;4.542;2023-04-24T10:41:37;20.90;51.80
80153;DHT22;69475;51.196;4.542;2023-04-24T10:44:13;20.90;51.90
80153;DHT22;69475;51.196;4.542;2023-04-24T10:46:46;20.90;51.90
80153;DHT22;69475;51.196;4.542;2023-04-24T10:49:28;20.80;51.70
80153;DHT22;69475;51.196;4.542;2023-04-24T10:52:00;20.90;51.70
80153;DHT22;69475;51.196;4.542;2023-04-24T10:54:35;21.00;51.40
80153;DHT22;69475;51.196;4.542;2023-04-24T11:02:38;21.10;50.80
80153;DHT22;69475;51.196;4.542;2023-04-24T11:05:04;21.10;50.70
80153;DHT22;69475;51.196;4.542;2023-04-24T11:10:33;21.00;50.80
80153;DHT22;69475;51.196;4.542;2023-04-24T11:13:03;20.90;50.80
80153;DHT22;69475;51.196;4.542;2023-04-24T11:15:28;20.90;50.70
80153;DHT22;69475;51.196;4.542;2023-04-24T11:17:56;20.90;50.60
80153;DHT22;69475;51.196;4.542;2023-04-24T11:20:23;20.80;50.80
80153;DHT22;69475;51.196;4.542;2023-04-24T11:22:53;20.80;51.00
80153;DHT22;69475;51.196;4.542;2023-04-24T11:25:21;20.70;51.00
80153;DHT22;69475;51.196;4.542;2023-04-24T11:27:47;20.80;50.70
80153;DHT22;69475;51.196;4.542;2023-04-24T11:30:19;20.80;50.60
80153;DHT22;69475;51.196;4.542;2023-04-24T11:32:50;20.80;50.60
80153;DHT22;69475;51.196;4.542;2023-04-24T11:35:17;20.80;50.60
80153;DHT22;69475;51.196;4.542;2023-04-24T11:37:51;20.80;50.90
80153;DHT22;69475;51.196;4.542;2023-04-24T11:40:18;20.60;51.20
80153;DHT22;69475;51.196;4.542;2023-04-24T11:42:47;20.50;51.60
80153;DHT22;69475;51.196;4.542;2023-04-24T11:45:16;20.60;51.50
80153;DHT22;69475;51.196;4.542;2023-04-24T11:47:43;20.60;51.70
80153;DHT22;69475;51.196;4.542;2023-04-24T11:50:11;20.70;51.90
80153;DHT22;69475;51.196;4.542;2023-04-24T11:52:39;20.70;51.80
80153;DHT22;69475;51.196;4.542;2023-04-24T11:57:48;20.80;51.80
80153;DHT22;69475;51.196;4.542;2023-04-24T12:00:19;20.70;51.80
80153;DHT22;69475;51.196;4.542;2023-04-24T12:02:46;20.90;52.70
80153;DHT22;69475;51.196;4.542;2023-04-24T12:05:26;20.80;51.70
80153;DHT22;69475;51.196;4.542;2023-04-24T12:07:52;20.80;51.60
80153;DHT22;69475;51.196;4.542;2023-04-24T12:10:22;20.90;51.90
80153;DHT22;69475;51.196;4.542;2023-04-24T12:12:49;20.80;51.80
80153;DHT22;69475;51.196;4.542;2023-04-24T12:15:17;20.90;51.80
80153;DHT22;69475;51.196;4.542;2023-04-24T12:17:44;20.90;51.90
80153;DHT22;69475;51.196;4.542;2023-04-24T12:20:10;20.90;51.90
80153;DHT22;69475;51.196;4.542;2023-04-24T12:22:53;20.90;51.80
80153;DHT22;69475;51.196;4.542;2023-04-24T12:25:28;21.00;51.60
80153;DHT22;69475;51.196;4.542;2023-04-24T12:28:14;20.90;51.50
80153;DHT22;69475;51.196;4.542;2023-04-24T12:30:46;21.00;51.50
80153;DHT22;69475;51.196;4.542;2023-04-24T12:33:18;21.00;51.60
80153;DHT22;69475;51.196;4.542;2023-04-24T12:35:45;21.00;51.50
80153;DHT22;69475;51.196;4.542;2023-04-24T12:38:13;21.10;51.40
80153;DHT22;69475;51.196;4.542;2023-04-24T12:40:40;21.10;51.30
80153;DHT22;69475;51.196;4.542;2023-04-24T12:43:19;21.10;51.20
80153;DHT22;69475;51.196;4.542;2023-04-24T12:45:47;21.20;51.10
80153;DHT22;69475;51.196;4.542;2023-04-24T12:48:12;21.20;50.80
80153;DHT22;69475;51.196;4.542;2023-04-24T12:50:39;21.20;51.00
80153;DHT22;69475;51.196;4.542;2023-04-24T12:53:07;21.20;51.00
80153;DHT22;69475;51.196;4.542;2023-04-24T12:55:33;21.20;51.00
80153;DHT22;69475;51.196;4.542;2023-04-24T12:57:59;21.20;50.90
80153;DHT22;69475;51.196;4.542;2023-04-24T13:00:25;21.20;51.00
80153;DHT22;69475;51.196;4.542;2023-04-24T13:02:50;21.20;51.00
80153;DHT22;69475;51.196;4.542;2023-04-24T13:05:16;21.20;51.00
80153;DHT22;69475;51.196;4.542;2023-04-24T13:07:42;21.20;50.80
80153;DHT22;69475;51.196;4.542;2023-04-24T13:10:08;21.20;51.00
80153;DHT22;69475;51.196;4.542;2023-04-24T13:12:34;21.20;51.00
80153;DHT22;69475;51.196;4.542;2023-04-24T13:15:00;21.10;51.20
80153;DHT22;69475;51.196;4.542;2023-04-24T13:17:26;21.10;51.40
80153;DHT22;69475;51.196;4.542;2023-04-24T13:19:53;21.10;51.30
80153;DHT22;69475;51.196;4.542;2023-04-24T13:22:20;21.10;51.20
80153;DHT22;69475;51.196;4.542;2023-04-24T13:24:46;21.10;50.50
80153;DHT22;69475;51.196;4.542;2023-04-24T13:27:14;21.00;50.50
80153;DHT22;69475;51.196;4.542;2023-04-24T13:29:40;20.90;51.80
80153;DHT22;69475;51.196;4.542;2023-04-24T13:32:05;20.80;50.80
80153;DHT22;69475;51.196;4.542;2023-04-24T13:34:31;20.70;50.60
80153;DHT22;69475;51.196;4.542;2023-04-24T13:36:58;20.60;50.50
80153;DHT22;69475;51.196;4.542;2023-04-24T13:39:24;20.60;50.60
80153;DHT22;69475;51.196;4.542;2023-04-24T13:41:51;20.60;50.50
80153;DHT22;69475;51.196;4.542;2023-04-24T13:44:18;20.70;50.40
80153;DHT22;69475;51.196;4.542;2023-04-24T13:46:45;20.60;50.30
80153;DHT22;69475;51.196;4.542;2023-04-24T13:49:12;20.60;50.40
80153;DHT22;69475;51.196;4.542;2023-04-24T13:51:39;20.60;50.60
80153;DHT22;69475;51.196;4.542;2023-04-24T13:54:05;20.70;50.40
80153;DHT22;69475;51.196;4.542;2023-04-24T13:56:31;20.70;50.10
80153;DHT22;69475;51.196;4.542;2023-04-24T13:58:56;20.70;50.00
80153;DHT22;69475;51.196;4.542;2023-04-24T14:01:23;20.60;50.10
80153;DHT22;69475;51.196;4.542;2023-04-24T14:03:53;20.50;50.30
80153;DHT22;69475;51.196;4.542;2023-04-24T14:06:20;20.50;50.40
80153;DHT22;69475;51.196;4.542;2023-04-24T14:08:46;20.40;50.50
80153;DHT22;69475;51.196;4.542;2023-04-24T14:11:12;20.30;50.60
80153;DHT22;69475;51.196;4.542;2023-04-24T14:13:38;20.30;50.60
80153;DHT22;69475;51.196;4.542;2023-04-24T14:16:04;20.30;50.60
80153;DHT22;69475;51.196;4.542;2023-04-24T14:18:30;20.20;50.60
80153;DHT22;69475;51.196;4.542;2023-04-24T14:20:56;20.20;50.80
80153;DHT22;69475;51.196;4.542;2023-04-24T14:23:21;20.20;50.70
80153;DHT22;69475;51.196;4.542;2023-04-24T14:25:47;20.20;50.50
80153;DHT22;69475;51.196;4.542;2023-04-24T14:28:17;20.30;50.50
80153;DHT22;69475;51.196;4.542;2023-04-24T14:30:43;20.40;50.30
80153;DHT22;69475;51.196;4.542;2023-04-24T14:33:09;20.40;50.10
80153;DHT22;69475;51.196;4.542;2023-04-24T14:35:35;20.50;50.00
80153;DHT22;69475;51.196;4.542;2023-04-24T14:38:01;20.60;49.80
80153;DHT22;69475;51.196;4.542;2023-04-24T14:40:26;20.60;49.80
80153;DHT22;69475;51.196;4.542;2023-04-24T14:42:52;20.60;49.80
80153;DHT22;69475;51.196;4.542;2023-04-24T14:45:18;20.60;49.80
80153;DHT22;69475;51.196;4.542;2023-04-24T14:47:45;20.60;49.80
80153;DHT22;69475;51.196;4.542;2023-04-24T14:50:10;20.60;49.80
80153;DHT22;69475;51.196;4.542;2023-04-24T14:52:38;20.50;49.70
80153;DHT22;69475;51.196;4.542;2023-04-24T14:55:04;20.50;49.80
80153;DHT22;69475;51.196;4.542;2023-04-24T14:57:32;20.50;49.90
80153;DHT22;69475;51.196;4.542;2023-04-24T14:59:58;20.40;50.00
80153;DHT22;69475;51.196;4.542;2023-04-24T15:02:24;20.30;48.10
80153;DHT22;69475;51.196;4.542;2023-04-24T15:04:49;20.40;46.80
80153;DHT22;69475;51.196;4.542;2023-04-24T15:07:15;20.40;47.40
80153;DHT22;69475;51.196;4.542;2023-04-24T15:09:41;20.30;47.70
80153;DHT22;69475;51.196;4.542;2023-04-24T15:12:06;20.40;48.00
80153;DHT22;69475;51.196;4.542;2023-04-24T15:14:32;20.40;48.30
80153;DHT22;69475;51.196;4.542;2023-04-24T15:16:57;20.50;48.20
80153;DHT22;69475;51.196;4.542;2023-04-24T15:19:23;20.50;48.40
80153;DHT22;69475;51.196;4.542;2023-04-24T15:21:49;20.50;48.40
80153;DHT22;69475;51.196;4.542;2023-04-24T15:24:14;20.50;48.50
80153;DHT22;69475;51.196;4.542;2023-04-24T15:26:40;20.50;48.50
80153;DHT22;69475;51.196;4.542;2023-04-24T15:29:06;20.50;48.40
80153;DHT22;69475;51.196;4.542;2023-04-24T15:31:31;20.60;48.40
80153;DHT22;69475;51.196;4.542;2023-04-24T15:33:58;20.50;48.40
80153;DHT22;69475;51.196;4.542;2023-04-24T15:36:23;20.50;48.40
80153;DHT22;69475;51.196;4.542;2023-04-24T15:38:49;20.50;48.40